Time;durP1;ratioP1;P1;durP2;ratioP2;P2;SDS_P1;SDS_P2;PMS_P1;PMS_P2;Temp;Humidity;BMP_temperature;BMP_pressure;BME280_temperature;BME280_humidity;BME280_pressure;Samples;Min_cycle;Max_cycle;Signal;HPM_P1;HPM_P2
2022/06/06 00:00:45;;;;;;;10.10;9.20;;;;;;;14.81;72.73;98950.52;105310;1268;73112;-74
2022/06/06 00:03:17;;;;;;;10.20;9.30;;;;;;;14.79;73.05;98950.12;105328;1268;62100;-76
2022/06/06 00:05:47;;;;;;;10.70;9.70;;;;;;;14.78;73.26;98953.23;105263;1268;62489;-78
2022/06/06 00:08:18;;;;;;;10.40;9.60;;;;;;;14.76;73.58;98958.11;105313;1268;77147;-76
2022/06/06 00:10:46;;;;;;;10.00;9.10;;;;;;;14.74;73.91;98956.63;105268;1268;70579;-77
2022/06/06 00:13:15;;;;;;;9.80;9.00;;;;;;;14.72;73.90;98957.91;105364;1268;73230;-75
2022/06/06 00:15:41;;;;;;;9.60;8.80;;;;;;;14.69;74.11;98960.63;105290;1268;62119;-77
2022/06/06 00:18:08;;;;;;;9.80;8.90;;;;;;;14.67;74.34;98963.88;105250;1268;62005;-78
2022/06/06 00:20:35;;;;;;;10.40;9.50;;;;;;;14.63;74.37;98961.70;105338;1268;62085;-78
2022/06/06 00:23:03;;;;;;;10.40;9.40;;;;;;;14.60;74.70;98959.25;105453;1268;69144;-77
2022/06/06 00:25:30;;;;;;;10.10;9.10;;;;;;;14.59;75.01;98958.41;105313;1268;73139;-76
2022/06/06 00:27:56;;;;;;;10.20;9.30;;;;;;;14.59;75.12;98958.44;104981;1268;62263;-77
2022/06/06 00:30:23;;;;;;;11.50;10.40;;;;;;;14.59;74.92;98964.02;105319;1268;62472;-76
2022/06/06 00:35:36;;;;;;;11.20;10.10;;;;;;;14.56;75.45;98960.89;105306;1268;69541;-76
2022/06/06 00:38:03;;;;;;;10.00;9.20;;;;;;;14.54;76.03;98956.73;105286;1268;73747;-76
2022/06/06 00:40:30;;;;;;;10.60;9.70;;;;;;;14.52;76.10;98957.03;105303;1268;62102;-77
2022/06/06 00:42:57;;;;;;;10.60;9.50;;;;;;;14.49;76.30;98961.70;105411;1268;62168;-77
2022/06/06 00:45:37;;;;;;;11.00;10.00;;;;;;;14.47;76.76;98961.23;105081;1268;295311;-78
2022/06/06 00:48:27;;;;;;;11.50;10.50;;;;;;;14.42;76.69;98954.42;105351;1268;69430;-77
2022/06/06 00:51:01;;;;;;;11.60;10.60;;;;;;;14.40;77.54;98953.39;105320;1268;74376;-76
2022/06/06 00:54:02;;;;;;;12.50;11.30;;;;;;;14.39;78.25;98952.00;105303;1268;62109;-76
2022/06/06 00:56:38;;;;;;;12.80;11.50;;;;;;;14.39;78.36;98948.13;105292;1268;62097;-78
2022/06/06 00:59:12;;;;;;;12.20;11.10;;;;;;;14.39;78.35;98942.77;105270;1268;76383;-76
2022/06/06 01:01:40;;;;;;;11.60;10.60;;;;;;;14.37;78.27;98940.94;105321;1268;69179;-77
2022/06/06 01:04:11;;;;;;;11.50;10.50;;;;;;;14.35;78.34;98941.31;105507;1268;73154;-76
2022/06/06 01:06:41;;;;;;;11.80;10.70;;;;;;;14.32;78.95;98939.92;105289;1268;62072;-77
2022/06/06 01:09:09;;;;;;;11.70;10.70;;;;;;;14.30;79.38;98940.97;105319;1268;62170;-76
2022/06/06 01:11:42;;;;;;;11.90;10.70;;;;;;;14.27;79.35;98939.79;105341;1268;76227;-75
2022/06/06 01:14:12;;;;;;;12.20;11.20;;;;;;;14.25;79.40;98950.66;105324;1268;70528;-76
2022/06/06 01:17:01;;;;;;;13.40;11.80;;;;;;;14.23;79.60;98954.77;105401;1268;73171;-77
2022/06/06 01:20:06;;;;;;;12.30;11.20;;;;;;;14.20;79.83;98954.16;104781;1277;62088;-77
2022/06/06 01:23:00;;;;;;;13.00;11.80;;;;;;;14.15;80.08;98951.50;104841;1277;62260;-77
2022/06/06 01:25:48;;;;;;;12.60;11.40;;;;;;;14.11;80.42;98950.13;104826;1277;75456;-75
2022/06/06 01:28:38;;;;;;;12.00;10.90;;;;;;;14.06;80.83;98942.27;104452;1280;68861;-76
2022/06/06 01:31:14;;;;;;;12.40;11.30;;;;;;;14.01;81.45;98937.31;104864;1277;72422;-76
2022/06/06 01:34:02;;;;;;;12.40;11.10;;;;;;;13.94;81.75;98929.80;104840;1277;62136;-77
2022/06/06 01:36:31;;;;;;;13.50;12.30;;;;;;;13.89;82.18;98927.55;104820;1276;62098;-78
2022/06/06 01:39:03;;;;;;;13.20;12.00;;;;;;;13.87;82.17;98924.50;104817;1277;76992;-77
2022/06/06 01:41:43;;;;;;;13.50;12.20;;;;;;;13.88;82.47;98919.30;104823;1276;67473;-76
2022/06/06 01:44:13;;;;;;;15.10;13.10;;;;;;;13.86;83.32;98915.14;104859;1277;74295;-76
2022/06/06 01:46:40;;;;;;;14.00;12.80;;;;;;;13.87;83.51;98908.84;104807;1277;62265;-77
2022/06/06 01:49:12;;;;;;;13.40;12.30;;;;;;;13.86;84.15;98902.64;104925;1277;62231;-77
2022/06/06 01:51:39;;;;;;;13.50;12.40;;;;;;;13.87;84.54;98901.14;104983;1277;75958;-79
2022/06/06 01:54:06;;;;;;;14.10;12.60;;;;;;;13.86;85.90;98899.11;104878;1277;69421;-78
2022/06/06 01:56:41;;;;;;;13.50;12.30;;;;;;;13.84;86.18;98904.02;104930;1268;73642;-78
2022/06/06 01:59:07;;;;;;;14.40;13.20;;;;;;;13.83;85.50;98909.60;105202;1268;62045;-76
2022/06/06 02:01:34;;;;;;;13.30;12.10;;;;;;;13.81;85.61;98907.33;105241;1268;62075;-76
2022/06/06 02:04:01;;;;;;;14.60;13.30;;;;;;;13.79;86.52;98910.18;105257;1271;76055;-78
2022/06/06 02:06:28;;;;;;;15.20;13.90;;;;;;;13.76;87.15;98915.73;105089;1268;62439;-77
2022/06/06 02:08:54;;;;;;;16.10;14.60;;;;;;;13.75;86.82;98926.77;105392;1268;62595;-77
2022/06/06 02:11:21;;;;;;;16.50;15.10;;;;;;;13.73;86.89;98937.44;105391;1267;62139;-78
2022/06/06 02:13:47;;;;;;;16.30;14.70;;;;;;;13.71;86.40;98947.59;105336;1268;62200;-77
2022/06/06 02:16:14;;;;;;;13.50;12.30;;;;;;;13.68;86.50;98949.62;105203;1268;62135;-77
2022/06/06 02:18:41;;;;;;;14.40;13.10;;;;;;;13.67;86.44;98959.75;105382;1268;70120;-76
2022/06/06 02:21:07;;;;;;;14.00;12.80;;;;;;;13.65;86.86;98970.39;105272;1268;74392;-77
2022/06/06 02:23:35;;;;;;;15.10;13.60;;;;;;;13.62;86.88;98972.41;105351;1268;62099;-76
2022/06/06 02:26:02;;;;;;;15.60;14.00;;;;;;;13.62;86.90;98972.23;105379;1268;62110;-76
2022/06/06 02:28:28;;;;;;;14.80;13.50;;;;;;;13.64;87.03;98971.17;105316;1267;76125;-76
2022/06/06 02:30:55;;;;;;;15.10;13.70;;;;;;;13.66;87.10;98974.58;105326;1268;70777;-77
2022/06/06 02:33:21;;;;;;;15.90;14.30;;;;;;;13.69;86.95;98973.85;105350;1268;62073;-77
2022/06/06 02:35:48;;;;;;;14.60;13.30;;;;;;;13.71;86.83;98970.84;105326;1268;62148;-77
2022/06/06 02:38:15;;;;;;;16.00;14.60;;;;;;;13.71;86.67;98968.15;105324;1268;62070;-77
2022/06/06 02:40:44;;;;;;;15.90;14.40;;;;;;;13.72;86.44;98966.08;105335;1268;75924;-76
2022/06/06 02:43:12;;;;;;;15.60;14.10;;;;;;;13.74;86.17;98962.88;105161;1269;69281;-76
2022/06/06 02:45:40;;;;;;;16.60;15.10;;;;;;;13.75;86.26;98967.09;105317;1268;72444;-76
2022/06/06 02:48:08;;;;;;;16.60;14.90;;;;;;;13.77;86.06;98970.33;105288;1268;62109;-75
2022/06/06 02:50:35;;;;;;;18.20;16.40;;;;;;;13.81;86.12;98971.27;105396;1268;61993;-75
2022/06/06 02:53:01;;;;;;;17.20;15.50;;;;;;;13.86;86.27;98978.21;105084;1268;62325;-76
2022/06/06 02:55:31;;;;;;;16.30;14.70;;;;;;;13.90;86.39;98982.33;105338;1268;62129;-76
2022/06/06 02:57:59;;;;;;;16.80;15.10;;;;;;;13.98;86.07;98981.70;105477;1268;73509;-78
2022/06/06 03:00:29;;;;;;;16.90;15.30;;;;;;;14.08;85.97;98975.15;105269;1268;62112;-76
2022/06/06 03:02:56;;;;;;;15.60;14.00;;;;;;;14.18;85.28;98967.15;104982;1268;62200;-74
2022/06/06 03:05:42;;;;;;;15.20;13.80;;;;;;;14.26;84.84;98968.77;105311;1268;77156;-75
2022/06/06 03:08:44;;;;;;;15.60;14.20;;;;;;;14.35;84.33;98963.66;105300;1267;69400;-76
2022/06/06 03:11:30;;;;;;;16.40;15.00;;;;;;;14.42;84.25;98960.19;104782;1277;73352;-77
2022/06/06 03:14:10;;;;;;;17.30;15.50;;;;;;;14.47;84.14;98961.69;104739;1277;62197;-76
2022/06/06 03:22:59;;;;;;;16.80;15.10;;;;;;;14.66;83.54;98959.27;104794;1277;69194;-78
2022/06/06 03:25:36;;;;;;;16.80;15.20;;;;;;;14.72;83.46;98955.16;104764;1277;72268;-75
2022/06/06 03:28:30;;;;;;;15.30;13.20;;;;;;;14.81;83.25;98954.42;104772;1276;62100;-76
2022/06/06 03:31:19;;;;;;;16.10;14.40;;;;;;;14.99;82.59;98956.32;104812;1277;62129;-76
2022/06/06 03:33:59;;;;;;;14.90;13.60;;;;;;;15.21;81.87;98953.30;104769;1277;76143;-76
2022/06/06 03:36:38;;;;;;;14.90;13.50;;;;;;;15.57;81.26;98957.02;104793;1277;69140;-76
2022/06/06 03:39:12;;;;;;;14.60;13.40;;;;;;;16.10;80.04;98955.13;104652;1277;74806;-77
2022/06/06 03:41:39;;;;;;;13.90;12.70;;;;;;;16.79;78.14;98955.09;104523;1277;62156;-78
2022/06/06 03:44:43;;;;;;;14.20;13.00;;;;;;;17.45;76.63;98952.63;104796;1277;62058;-77
2022/06/06 03:47:27;;;;;;;13.60;12.40;;;;;;;18.13;74.31;98953.19;104782;1277;76153;-77
2022/06/06 03:50:02;;;;;;;13.20;12.10;;;;;;;18.61;72.80;98946.31;105263;1268;69231;-76
2022/06/06 03:52:36;;;;;;;12.30;11.20;;;;;;;19.08;71.23;98946.56;105263;1268;74325;-77
2022/06/06 03:55:14;;;;;;;11.40;10.50;;;;;;;19.56;69.57;98943.33;105271;1268;62174;-74
2022/06/06 03:57:45;;;;;;;10.90;10.00;;;;;;;20.11;67.88;98939.77;105178;1268;62146;-77
2022/06/06 04:00:12;;;;;;;10.40;9.60;;;;;;;20.45;65.77;98937.71;105324;1268;77073;-78
2022/06/06 04:02:41;;;;;;;10.00;9.20;;;;;;;20.74;64.12;98941.40;105300;1268;69164;-77
2022/06/06 04:05:15;;;;;;;11.10;10.20;;;;;;;20.62;63.62;98937.31;105362;1268;73194;-76
2022/06/06 04:07:42;;;;;;;11.00;10.20;;;;;;;20.20;63.34;98932.09;105172;1268;62169;-75
2022/06/06 04:10:09;;;;;;;11.00;10.00;;;;;;;19.77;63.61;98931.41;105314;1268;62071;-77
2022/06/06 04:12:58;;;;;;;11.70;10.50;;;;;;;19.69;63.44;98926.84;105015;1268;76338;-77
2022/06/06 04:15:28;;;;;;;11.50;10.60;;;;;;;19.74;63.21;98919.47;105295;1268;69017;-76
2022/06/06 04:18:17;;;;;;;10.30;9.50;;;;;;;19.78;63.21;98922.91;105301;1268;72811;-78
2022/06/06 04:21:06;;;;;;;10.50;9.70;;;;;;;19.99;63.22;98932.13;105302;1268;62138;-76
2022/06/06 04:23:54;;;;;;;10.50;9.60;;;;;;;20.39;62.32;98931.23;105280;1268;62182;-77
2022/06/06 04:26:36;;;;;;;11.10;10.00;;;;;;;20.52;61.93;98934.73;105345;1268;77149;-76
2022/06/06 04:29:09;;;;;;;11.20;10.10;;;;;;;20.32;61.99;98933.10;105330;1268;69170;-76
2022/06/06 04:32:00;;;;;;;11.10;10.20;;;;;;;20.35;61.63;98932.55;105217;1268;71275;-79
2022/06/06 04:34:45;;;;;;;10.60;9.80;;;;;;;20.47;61.33;98932.92;105325;1268;62200;-78
2022/06/06 04:37:31;;;;;;;10.80;10.00;;;;;;;20.55;61.25;98936.37;105315;1268;61944;-75
2022/06/06 04:40:05;;;;;;;11.60;10.50;;;;;;;20.60;61.08;98938.03;105295;1268;76057;-77
2022/06/06 04:42:50;;;;;;;11.00;10.10;;;;;;;20.75;60.88;98940.00;105273;1268;70143;-78
2022/06/06 04:45:23;;;;;;;10.60;9.80;;;;;;;20.93;60.43;98939.50;105288;1268;73302;-77
2022/06/06 04:47:51;;;;;;;11.40;10.40;;;;;;;20.98;59.64;98940.36;105294;1268;62138;-78
2022/06/06 04:50:20;;;;;;;10.20;9.40;;;;;;;20.92;59.78;98936.52;105269;1268;62163;-77
2022/06/06 04:52:59;;;;;;;11.60;10.60;;;;;;;20.96;59.76;98938.08;105268;1268;76088;-75
2022/06/06 04:55:27;;;;;;;11.50;10.40;;;;;;;21.00;59.38;98943.69;105297;1268;70669;-76
2022/06/06 04:57:56;;;;;;;10.50;9.70;;;;;;;20.88;59.23;98943.24;105293;1268;74324;-76
2022/06/06 05:00:24;;;;;;;11.00;10.20;;;;;;;20.72;59.58;98945.27;105341;1268;62457;-74
2022/06/06 05:02:51;;;;;;;10.70;9.80;;;;;;;20.57;59.38;98944.55;105340;1268;62209;-76
2022/06/06 05:05:17;;;;;;;11.10;10.20;;;;;;;20.38;59.45;98939.36;105222;1268;62071;-76
2022/06/06 05:07:59;;;;;;;11.20;10.30;;;;;;;20.27;59.57;98942.31;105268;1267;62122;-75
2022/06/06 05:10:47;;;;;;;11.50;10.60;;;;;;;20.30;60.05;98941.59;105314;1268;74666;-77
2022/06/06 05:13:22;;;;;;;12.10;11.10;;;;;;;20.33;60.00;98943.11;105327;1268;62162;-76
2022/06/06 05:16:35;;;;;;;11.80;10.70;;;;;;;20.37;60.04;98944.27;105281;1268;62090;-76
2022/06/06 05:19:23;;;;;;;11.90;10.80;;;;;;;20.79;59.57;98944.67;105308;1268;76072;-74
2022/06/06 05:22:01;;;;;;;11.10;10.00;;;;;;;21.66;58.31;98943.25;105306;1268;69163;-76
2022/06/06 05:24:54;;;;;;;10.70;9.80;;;;;;;22.40;56.83;98944.83;105296;1268;74204;-76
2022/06/06 05:27:48;;;;;;;10.30;9.50;;;;;;;22.94;55.84;98945.67;105297;1268;62186;-76
2022/06/06 05:30:19;;;;;;;11.20;10.30;;;;;;;23.41;54.74;98948.08;105310;1267;62021;-74
2022/06/06 05:32:54;;;;;;;10.10;9.20;;;;;;;23.79;54.16;98948.13;105306;1268;75440;-77
2022/06/06 05:35:43;;;;;;;11.30;10.40;;;;;;;24.31;52.77;98951.89;105311;1268;68699;-78
2022/06/06 05:38:42;;;;;;;10.60;9.50;;;;;;;24.76;51.95;98947.52;105316;1268;74231;-76
2022/06/06 05:41:27;;;;;;;10.30;9.50;;;;;;;25.04;50.89;98953.14;105306;1268;62291;-79
2022/06/06 05:44:00;;;;;;;9.90;9.10;;;;;;;25.13;50.13;98954.91;105189;1268;62360;-77
2022/06/06 05:47:02;;;;;;;10.20;9.40;;;;;;;24.76;50.18;98957.20;105222;1268;77041;-77
2022/06/06 05:49:48;;;;;;;10.20;9.40;;;;;;;24.40;50.43;98957.69;105297;1268;69384;-76
2022/06/06 05:52:51;;;;;;;10.80;9.90;;;;;;;24.31;50.56;98958.79;105206;1268;71448;-77
2022/06/06 05:55:21;;;;;;;9.40;8.70;;;;;;;24.48;50.31;98959.77;105335;1268;62201;-75
2022/06/06 05:58:03;;;;;;;10.20;9.40;;;;;;;24.50;50.90;98966.97;105321;1267;62077;-75
2022/06/06 06:00:58;;;;;;;10.20;9.40;;;;;;;24.32;51.22;98968.78;105303;1268;76107;-75
2022/06/06 06:03:43;;;;;;;10.50;9.70;;;;;;;24.24;51.22;98967.09;105323;1268;69812;-75
2022/06/06 06:06:19;;;;;;;10.70;9.80;;;;;;;24.14;51.18;98964.67;105319;1268;73171;-75
2022/06/06 06:09:27;;;;;;;10.90;10.00;;;;;;;24.13;50.82;98965.95;105274;1267;62068;-77
2022/06/06 06:12:16;;;;;;;10.30;9.50;;;;;;;24.15;50.66;98961.20;104820;1277;62091;-74
2022/06/06 06:14:51;;;;;;;9.70;8.90;;;;;;;24.27;50.48;98968.17;104814;1277;75835;-76
2022/06/06 06:17:23;;;;;;;11.10;10.10;;;;;;;24.60;49.99;98977.13;104826;1277;69347;-76
2022/06/06 06:20:00;;;;;;;11.00;10.10;;;;;;;24.75;49.82;98977.41;104796;1277;74581;-74
2022/06/06 06:22:49;;;;;;;10.70;9.80;;;;;;;24.97;49.72;98978.05;104842;1277;62075;-75
2022/06/06 06:25:19;;;;;;;10.70;9.80;;;;;;;25.29;48.88;98977.29;104495;1280;62065;-75
2022/06/06 06:27:47;;;;;;;9.30;8.50;;;;;;;25.63;48.63;98983.07;104180;1279;75570;-76
2022/06/06 06:30:14;;;;;;;9.20;8.50;;;;;;;26.05;48.32;98977.41;104289;1279;68490;-76
2022/06/06 06:33:11;;;;;;;9.50;8.60;;;;;;;26.41;47.49;98973.19;104406;1279;73048;-76
2022/06/06 06:35:47;;;;;;;8.80;8.10;;;;;;;26.66;47.04;98966.08;104394;1279;62162;-75
2022/06/06 06:38:22;;;;;;;8.60;7.90;;;;;;;26.98;46.73;98966.48;104384;1279;62281;-74
2022/06/06 06:41:37;;;;;;;8.60;8.00;;;;;;;27.24;45.70;98969.96;104419;1279;76975;-76
2022/06/06 06:44:15;;;;;;;8.50;7.70;;;;;;;27.31;44.78;98970.30;103701;1287;69833;-75
2022/06/06 06:46:47;;;;;;;8.10;7.30;;;;;;;27.45;44.44;98965.98;103833;1285;74413;-76
2022/06/06 06:49:26;;;;;;;8.40;7.60;;;;;;;27.61;44.25;98968.52;104020;1280;62312;-75
2022/06/06 06:52:20;;;;;;;8.50;7.80;;;;;;;27.71;43.45;98966.77;104391;1281;62140;-74
2022/06/06 06:54:59;;;;;;;8.40;7.60;;;;;;;27.75;43.25;98968.96;104416;1279;76001;-75
2022/06/06 06:57:51;;;;;;;8.40;7.60;;;;;;;27.87;43.06;98972.25;104314;1277;69788;-75
2022/06/06 07:00:21;;;;;;;9.10;8.30;;;;;;;27.93;42.84;98972.61;104767;1277;72840;-77
2022/06/06 07:09:23;;;;;;;8.50;7.80;;;;;;;27.55;41.99;98963.52;104883;1277;76158;-75
2022/06/06 07:11:55;;;;;;;8.10;7.50;;;;;;;27.41;42.30;98962.34;104674;1276;69081;-75
2022/06/06 07:14:50;;;;;;;8.30;7.60;;;;;;;27.36;42.01;98960.35;104754;1276;73334;-75
2022/06/06 07:17:18;;;;;;;7.80;6.80;;;;;;;27.24;42.55;98964.83;104773;1277;62633;-75
2022/06/06 07:19:53;;;;;;;9.00;7.70;;;;;;;27.28;43.01;98965.79;104783;1277;62366;-74
2022/06/06 07:22:21;;;;;;;8.40;7.70;;;;;;;27.40;42.99;98965.61;105214;1268;76437;-77
2022/06/06 07:24:57;;;;;;;7.60;7.00;;;;;;;27.46;43.37;98964.93;105209;1268;70141;-77
2022/06/06 07:27:23;;;;;;;9.20;8.40;;;;;;;27.55;43.60;98969.01;105214;1268;74357;-76
2022/06/06 07:29:50;;;;;;;7.80;7.20;;;;;;;27.34;43.12;98968.52;105010;1268;62027;-77
2022/06/06 07:32:27;;;;;;;8.20;7.50;;;;;;;27.09;44.17;98969.59;105202;1268;62077;-74
2022/06/06 07:35:24;;;;;;;8.60;7.90;;;;;;;27.03;44.72;98968.24;105188;1268;77037;-76
2022/06/06 07:38:17;;;;;;;7.00;6.50;;;;;;;26.92;44.16;98968.31;105215;1268;69611;-76
2022/06/06 07:41:06;;;;;;;7.60;7.10;;;;;;;26.77;44.75;98967.83;105227;1268;73467;-74
2022/06/06 07:44:07;;;;;;;9.20;8.10;;;;;;;26.72;44.73;98966.77;105190;1268;62021;-75
2022/06/06 07:47:00;;;;;;;8.70;8.00;;;;;;;26.57;44.37;98967.77;105269;1268;62517;-74
2022/06/06 07:49:35;;;;;;;9.00;8.20;;;;;;;26.38;44.23;98966.79;105217;1268;77013;-75
2022/06/06 07:52:29;;;;;;;7.90;7.20;;;;;;;26.25;44.56;98962.13;105185;1268;69932;-75
2022/06/06 07:55:02;;;;;;;7.70;7.10;;;;;;;26.25;44.86;98961.57;105218;1268;73319;-76
2022/06/06 07:57:42;;;;;;;8.20;7.50;;;;;;;26.26;44.32;98963.88;105299;1268;62595;-75
2022/06/06 08:00:22;;;;;;;7.10;6.50;;;;;;;26.16;44.41;98959.58;105250;1268;62105;-74
2022/06/06 08:02:52;;;;;;;8.20;7.60;;;;;;;25.99;44.13;98961.67;105224;1268;75629;-75
2022/06/06 08:05:51;;;;;;;8.30;7.70;;;;;;;25.91;44.93;98959.99;105207;1268;69597;-76
2022/06/06 08:08:55;;;;;;;7.50;6.90;;;;;;;26.04;45.46;98961.11;105184;1268;73347;-75
2022/06/06 08:11:43;;;;;;;8.30;7.50;;;;;;;26.02;44.73;98960.30;105231;1268;62141;-75
2022/06/06 08:14:17;;;;;;;8.40;7.30;;;;;;;25.91;45.17;98962.52;105193;1268;62081;-75
2022/06/06 08:16:50;;;;;;;8.20;7.60;;;;;;;25.80;45.31;98961.36;105265;1268;76091;-78
2022/06/06 08:19:35;;;;;;;7.60;7.10;;;;;;;25.59;45.60;98955.85;105196;1268;69226;-76
2022/06/06 08:22:02;;;;;;;8.50;7.80;;;;;;;25.40;45.69;98958.32;105185;1268;74196;-75
2022/06/06 08:24:41;;;;;;;7.60;7.00;;;;;;;25.36;46.03;98958.34;105184;1268;62232;-76
2022/06/06 08:27:14;;;;;;;7.70;7.10;;;;;;;25.35;46.47;98954.33;105273;1268;62092;-75
2022/06/06 08:29:43;;;;;;;8.50;7.80;;;;;;;25.53;46.35;98951.39;105209;1268;77531;-75
2022/06/06 08:32:10;;;;;;;8.50;7.80;;;;;;;25.80;46.45;98952.48;105451;1268;70355;-76
2022/06/06 08:34:38;;;;;;;8.00;7.30;;;;;;;25.98;45.79;98951.92;105122;1268;73200;-76
2022/06/06 08:37:24;;;;;;;8.10;7.40;;;;;;;26.08;46.29;98957.30;105055;1268;62193;-76
2022/06/06 08:39:57;;;;;;;9.50;8.80;;;;;;;26.27;46.61;98958.23;105180;1268;61950;-75
2022/06/06 08:42:52;;;;;;;8.10;7.60;;;;;;;26.50;46.82;98958.72;105232;1267;77091;-76
2022/06/06 08:45:52;;;;;;;7.80;7.10;;;;;;;26.63;45.61;98955.41;104831;1277;69140;-76
2022/06/06 08:48:56;;;;;;;8.60;7.90;;;;;;;26.66;44.94;98954.84;104030;1282;72382;-75
2022/06/06 08:51:24;;;;;;;8.20;7.60;;;;;;;26.73;45.47;98955.98;103887;1282;62197;-76
2022/06/06 08:54:22;;;;;;;7.80;7.30;;;;;;;26.89;45.22;98952.79;103910;1282;62097;-76
2022/06/06 08:57:04;;;;;;;7.40;6.90;;;;;;;27.03;45.14;98953.68;103996;1282;77680;-76
2022/06/06 09:00:09;;;;;;;7.80;7.10;;;;;;;27.14;45.01;98954.56;103979;1282;70351;-76
2022/06/06 09:03:17;;;;;;;7.60;7.00;;;;;;;27.27;44.81;98952.83;103413;1290;73769;-76
2022/06/06 09:06:06;;;;;;;7.70;7.20;;;;;;;27.29;44.11;98946.68;103440;1290;62424;-74
2022/06/06 09:08:46;;;;;;;7.40;6.70;;;;;;;27.28;43.76;98953.49;103455;1290;62128;-77
2022/06/06 09:11:31;;;;;;;7.80;7.20;;;;;;;27.17;42.98;98955.30;103476;1290;76525;-75
2022/06/06 09:14:20;;;;;;;7.30;6.70;;;;;;;26.96;42.49;98954.98;103437;1290;69419;-76
2022/06/06 09:17:07;;;;;;;7.20;6.70;;;;;;;26.93;42.85;98955.20;103412;1290;74365;-74
2022/06/06 09:19:46;;;;;;;7.80;7.20;;;;;;;26.99;42.80;98956.84;103478;1291;62247;-75
2022/06/06 09:22:50;;;;;;;7.20;6.70;;;;;;;27.00;42.87;98956.41;103522;1285;62135;-76
2022/06/06 09:25:37;;;;;;;7.70;7.00;;;;;;;27.07;42.90;98950.70;103990;1276;75030;-75
2022/06/06 09:28:18;;;;;;;8.00;7.40;;;;;;;27.21;42.80;98951.14;104610;1276;69629;-75
2022/06/06 09:31:13;;;;;;;8.30;7.60;;;;;;;27.28;42.67;98946.86;104756;1277;73278;-76
2022/06/06 09:34:16;;;;;;;7.10;6.70;;;;;;;27.40;43.22;98944.77;104790;1277;62110;-78
2022/06/06 09:36:55;;;;;;;7.70;7.10;;;;;;;27.55;42.63;98944.91;104563;1276;62225;-77
2022/06/06 09:39:52;;;;;;;8.60;7.90;;;;;;;27.63;42.85;98944.50;104582;1274;74594;-77
2022/06/06 09:42:37;;;;;;;8.60;8.00;;;;;;;27.66;42.42;98943.45;105263;1268;70284;-78
2022/06/06 09:45:27;;;;;;;7.90;7.40;;;;;;;27.76;42.74;98937.80;104981;1268;73219;-77
2022/06/06 09:48:25;;;;;;;8.30;7.70;;;;;;;27.96;42.93;98930.92;105645;1268;62148;-76
2022/06/06 09:51:01;;;;;;;8.90;8.20;;;;;;;28.09;42.65;98929.44;105274;1268;62292;-76
2022/06/06 10:00:23;;;;;;;8.60;7.80;;;;;;;28.15;41.17;98926.46;105269;1268;73173;-76
2022/06/06 10:02:59;;;;;;;7.60;7.00;;;;;;;28.08;41.93;98925.48;105293;1268;62144;-75
2022/06/06 10:05:42;;;;;;;7.60;7.00;;;;;;;28.05;41.76;98922.91;105269;1268;62009;-75
2022/06/06 10:08:26;;;;;;;7.80;7.20;;;;;;;28.06;41.73;98923.16;105207;1268;76202;-75
2022/06/06 10:11:19;;;;;;;7.90;7.30;;;;;;;28.13;41.52;98914.99;105282;1268;70507;-76
2022/06/06 10:13:53;;;;;;;7.70;7.20;;;;;;;28.25;41.86;98911.36;105261;1268;74349;-74
2022/06/06 10:16:26;;;;;;;8.20;7.50;;;;;;;28.34;42.15;98909.99;105288;1268;62144;-75
2022/06/06 10:19:20;;;;;;;7.90;7.20;;;;;;;28.44;41.45;98912.61;105282;1268;62546;-75
2022/06/06 10:22:05;;;;;;;8.60;7.90;;;;;;;28.38;41.24;98907.27;105268;1268;73968;-75
2022/06/06 10:24:34;;;;;;;7.80;7.20;;;;;;;28.34;40.53;98907.64;105275;1268;68479;-76
2022/06/06 10:27:51;;;;;;;7.60;7.00;;;;;;;28.33;41.50;98904.07;105236;1268;74190;-76
2022/06/06 10:30:33;;;;;;;7.70;7.20;;;;;;;28.53;42.57;98898.52;104600;1276;62060;-75
2022/06/06 10:33:24;;;;;;;7.80;7.20;;;;;;;28.66;42.25;98897.20;104614;1276;62289;-75
2022/06/06 10:36:00;;;;;;;8.00;7.40;;;;;;;28.73;42.01;98897.16;104584;1276;76210;-74
2022/06/06 10:38:45;;;;;;;8.30;7.80;;;;;;;28.79;41.19;98900.06;104584;1276;69289;-75
2022/06/06 10:41:29;;;;;;;7.80;7.20;;;;;;;28.89;41.05;98901.00;104601;1276;71639;-76
2022/06/06 10:44:07;;;;;;;7.50;6.90;;;;;;;29.07;40.49;98895.57;104585;1276;62143;-76
2022/06/06 10:46:46;;;;;;;8.40;7.90;;;;;;;29.32;40.66;98897.83;104577;1276;62225;-76
2022/06/06 10:49:36;;;;;;;9.20;8.50;;;;;;;29.45;39.63;98893.74;104579;1276;76124;-76
2022/06/06 10:52:32;;;;;;;7.70;7.20;;;;;;;29.37;39.36;98892.39;104612;1276;69268;-78
2022/06/06 10:55:14;;;;;;;8.40;7.70;;;;;;;29.47;39.41;98892.15;104594;1276;74447;-77
2022/06/06 10:57:52;;;;;;;7.80;7.20;;;;;;;29.57;38.85;98888.33;104595;1276;62216;-77
2022/06/06 11:00:37;;;;;;;7.70;7.20;;;;;;;29.57;38.96;98888.42;104587;1276;62183;-77
2022/06/06 11:03:32;;;;;;;6.90;6.50;;;;;;;29.75;39.21;98886.98;104572;1276;75908;-76
2022/06/06 11:06:32;;;;;;;8.20;7.60;;;;;;;29.90;38.54;98883.36;105173;1271;69304;-76
2022/06/06 11:09:37;;;;;;;7.80;7.30;;;;;;;29.73;37.88;98884.12;105171;1271;73174;-79
2022/06/06 11:12:12;;;;;;;7.60;7.00;;;;;;;29.54;38.09;98885.48;105188;1271;62136;-77
2022/06/06 11:14:42;;;;;;;7.70;7.20;;;;;;;29.61;38.00;98886.85;105206;1271;62113;-75
2022/06/06 11:17:28;;;;;;;7.50;7.10;;;;;;;29.62;38.01;98890.91;105213;1271;77273;-77
2022/06/06 11:20:16;;;;;;;8.00;7.30;;;;;;;29.74;38.83;98885.86;105233;1271;70368;-75
2022/06/06 11:23:21;;;;;;;7.40;6.80;;;;;;;30.07;39.11;98881.53;105291;1271;72229;-75
2022/06/06 11:26:20;;;;;;;7.30;6.80;;;;;;;30.28;38.32;98880.21;104825;1277;62209;-75
2022/06/06 11:29:05;;;;;;;7.30;6.50;;;;;;;30.42;38.22;98875.23;104027;1284;62069;-79
2022/06/06 11:32:07;;;;;;;7.40;6.80;;;;;;;30.33;37.44;98873.75;103932;1284;77115;-74
2022/06/06 11:35:05;;;;;;;7.20;6.70;;;;;;;30.29;37.31;98870.00;104018;1282;70340;-75
2022/06/06 11:37:48;;;;;;;7.70;7.00;;;;;;;30.45;37.08;98869.49;104062;1282;72816;-76
2022/06/06 11:40:32;;;;;;;7.80;7.20;;;;;;;30.55;36.74;98867.46;103991;1282;62316;-76
2022/06/06 11:43:04;;;;;;;7.10;6.60;;;;;;;30.66;36.55;98865.10;104047;1282;62109;-75
2022/06/06 11:45:49;;;;;;;7.10;6.60;;;;;;;30.90;37.76;98861.52;104077;1282;75995;-76
2022/06/06 11:48:48;;;;;;;6.60;6.20;;;;;;;31.25;37.79;98859.65;104114;1282;70279;-76
2022/06/06 11:51:36;;;;;;;7.20;6.60;;;;;;;31.41;37.12;98855.52;104032;1282;73524;-77
2022/06/06 11:54:13;;;;;;;6.70;6.20;;;;;;;31.33;36.94;98852.34;103988;1282;62147;-76
2022/06/06 11:57:24;;;;;;;7.60;6.60;;;;;;;31.20;37.10;98854.25;104002;1282;62218;-76
2022/06/06 11:59:57;;;;;;;6.90;6.40;;;;;;;31.04;36.85;98853.71;103979;1282;76124;-76
2022/06/06 12:02:38;;;;;;;7.30;6.70;;;;;;;30.84;37.52;98853.67;104083;1279;70431;-76
2022/06/06 12:05:34;;;;;;;7.30;6.80;;;;;;;30.67;36.89;98851.09;104549;1278;73195;-76
2022/06/06 12:08:26;;;;;;;6.90;6.40;;;;;;;30.41;37.16;98854.98;105233;1271;62162;-76
2022/06/06 12:11:35;;;;;;;7.50;6.90;;;;;;;30.15;37.57;98849.76;105230;1270;62098;-76
2022/06/06 12:14:19;;;;;;;7.70;7.10;;;;;;;29.96;37.89;98850.15;105228;1270;76206;-76
2022/06/06 12:17:05;;;;;;;8.10;7.60;;;;;;;29.84;38.67;98846.02;105193;1271;69311;-77
2022/06/06 12:19:56;;;;;;;10.60;9.80;;;;;;;29.68;39.09;98845.09;105173;1271;73550;-76
2022/06/06 12:22:25;;;;;;;8.50;7.70;;;;;;;29.51;39.72;98836.98;104965;1271;62302;-77
2022/06/06 12:25:10;;;;;;;7.10;6.40;;;;;;;29.43;40.07;98836.20;105202;1271;62103;-76
2022/06/06 12:27:57;;;;;;;7.70;7.20;;;;;;;29.37;39.94;98839.42;105186;1271;76016;-77
2022/06/06 12:30:30;;;;;;;7.50;7.00;;;;;;;29.32;39.73;98838.77;105211;1271;69278;-76
2022/06/06 12:32:58;;;;;;;7.20;6.50;;;;;;;29.25;39.31;98833.35;105144;1271;73319;-75
2022/06/06 12:35:28;;;;;;;7.60;6.90;;;;;;;29.20;39.83;98833.23;105244;1271;62137;-76
2022/06/06 12:38:00;;;;;;;8.50;7.70;;;;;;;29.06;40.43;98836.74;105202;1271;62076;-78
2022/06/06 12:40:46;;;;;;;7.50;6.90;;;;;;;28.93;40.51;98837.57;105225;1271;77217;-74